sensor_id;sensor_type;location;lat;lon;timestamp;pressure;altitude;pressure_sealevel;temperature;humidity
66524;BME280;53350;52.210;5.160;2024-01-30T00:00:11;102626.56;;;9.44;83.26
66524;BME280;53350;52.210;5.160;2024-01-30T00:02:38;102632.38;;;9.35;84.51
66524;BME280;53350;52.210;5.160;2024-01-30T00:05:05;102619.59;;;9.39;83.78
66524;BME280;53350;52.210;5.160;2024-01-30T00:07:31;102614.50;;;9.41;83.79
66524;BME280;53350;52.210;5.160;2024-01-30T00:09:59;102615.38;;;9.42;83.51
66524;BME280;53350;52.210;5.160;2024-01-30T00:12:25;102614.47;;;9.39;83.89
66524;BME280;53350;52.210;5.160;2024-01-30T00:14:52;102618.81;;;9.42;83.77
66524;BME280;53350;52.210;5.160;2024-01-30T00:17:19;102610.28;;;9.43;83.85
66524;BME280;53350;52.210;5.160;2024-01-30T00:19:46;102615.38;;;9.42;84.53
66524;BME280;53350;52.210;5.160;2024-01-30T00:22:12;102613.72;;;9.45;83.64
66524;BME280;53350;52.210;5.160;2024-01-30T00:24:38;102611.19;;;9.47;83.70
66524;BME280;53350;52.210;5.160;2024-01-30T00:27:07;102618.16;;;9.52;83.73
66524;BME280;53350;52.210;5.160;2024-01-30T00:29:34;102613.78;;;9.48;83.72
66524;BME280;53350;52.210;5.160;2024-01-30T00:32:00;102606.97;;;9.49;83.56
66524;BME280;53350;52.210;5.160;2024-01-30T00:34:26;102612.97;;;9.49;83.66
66524;BME280;53350;52.210;5.160;2024-01-30T00:36:53;102607.81;;;9.49;83.26
66524;BME280;53350;52.210;5.160;2024-01-30T00:39:19;102608.72;;;9.51;83.37
66524;BME280;53350;52.210;5.160;2024-01-30T00:41:46;102605.34;;;9.54;83.21
66524;BME280;53350;52.210;5.160;2024-01-30T00:44:13;102611.31;;;9.53;83.18
66524;BME280;53350;52.210;5.160;2024-01-30T00:46:40;102609.63;;;9.53;83.50
66524;BME280;53350;52.210;5.160;2024-01-30T00:49:06;102607.09;;;9.55;83.31
66524;BME280;53350;52.210;5.160;2024-01-30T00:51:33;102601.94;;;9.55;83.07
66524;BME280;53350;52.210;5.160;2024-01-30T00:53:59;102581.91;;;9.40;83.58
66524;BME280;53350;52.210;5.160;2024-01-30T00:56:25;102604.41;;;9.50;83.77
66524;BME280;53350;52.210;5.160;2024-01-30T00:58:52;102601.06;;;9.54;83.60
66524;BME280;53350;52.210;5.160;2024-01-30T01:01:20;102599.25;;;9.49;83.62
66524;BME280;53350;52.210;5.160;2024-01-30T01:03:46;102601.88;;;9.52;83.82
66524;BME280;53350;52.210;5.160;2024-01-30T01:06:13;102606.13;;;9.51;83.91
66524;BME280;53350;52.210;5.160;2024-01-30T01:08:40;102596.72;;;9.52;83.55
66524;BME280;53350;52.210;5.160;2024-01-30T01:11:06;102581.28;;;9.52;83.89
66524;BME280;53350;52.210;5.160;2024-01-30T01:13:32;102577.94;;;9.56;83.44
66524;BME280;53350;52.210;5.160;2024-01-30T01:15:59;102570.38;;;9.64;83.27
66524;BME280;53350;52.210;5.160;2024-01-30T01:18:27;102569.59;;;9.68;83.02
66524;BME280;53350;52.210;5.160;2024-01-30T01:20:53;102576.47;;;9.69;82.97
66524;BME280;53350;52.210;5.160;2024-01-30T01:23:20;102587.66;;;9.69;83.10
66524;BME280;53350;52.210;5.160;2024-01-30T01:25:46;102586.84;;;9.72;82.85
66524;BME280;53350;52.210;5.160;2024-01-30T01:28:12;102586.69;;;9.66;82.51
66524;BME280;53350;52.210;5.160;2024-01-30T01:30:39;102583.31;;;9.67;82.55
66524;BME280;53350;52.210;5.160;2024-01-30T01:33:05;102579.78;;;9.62;82.52
66524;BME280;53350;52.210;5.160;2024-01-30T01:35:33;102590.00;;;9.58;82.66
66524;BME280;53350;52.210;5.160;2024-01-30T01:37:59;102587.44;;;9.60;82.76
66524;BME280;53350;52.210;5.160;2024-01-30T01:40:27;102585.69;;;9.56;82.68
66524;BME280;53350;52.210;5.160;2024-01-30T01:42:55;102586.47;;;9.53;83.34
66524;BME280;53350;52.210;5.160;2024-01-30T01:45:22;102580.31;;;9.47;82.95
66524;BME280;53350;52.210;5.160;2024-01-30T01:47:51;102583.78;;;9.47;82.98
66524;BME280;53350;52.210;5.160;2024-01-30T01:50:18;102588.03;;;9.47;82.70
66524;BME280;53350;52.210;5.160;2024-01-30T01:52:48;102588.94;;;9.47;82.87
66524;BME280;53350;52.210;5.160;2024-01-30T01:55:15;102564.84;;;9.44;83.12
66524;BME280;53350;52.210;5.160;2024-01-30T01:57:42;102574.34;;;9.48;83.09
66524;BME280;53350;52.210;5.160;2024-01-30T02:00:10;102568.38;;;9.49;82.83
66524;BME280;53350;52.210;5.160;2024-01-30T02:02:39;102564.84;;;9.45;82.79
66524;BME280;53350;52.210;5.160;2024-01-30T02:05:06;102569.22;;;9.49;82.58
66524;BME280;53350;52.210;5.160;2024-01-30T02:07:32;102580.38;;;9.50;82.75
66524;BME280;53350;52.210;5.160;2024-01-30T02:10:00;102579.59;;;9.52;82.56
66524;BME280;53350;52.210;5.160;2024-01-30T02:12:26;102582.13;;;9.51;82.50
66524;BME280;53350;52.210;5.160;2024-01-30T02:14:53;102565.88;;;9.53;82.36
66524;BME280;53350;52.210;5.160;2024-01-30T02:17:20;102553.94;;;9.57;82.34
66524;BME280;53350;52.210;5.160;2024-01-30T02:19:48;102578.78;;;9.55;82.80
66524;BME280;53350;52.210;5.160;2024-01-30T02:22:16;102579.63;;;9.55;82.29
66524;BME280;53350;52.210;5.160;2024-01-30T02:24:43;102576.22;;;9.55;82.38
66524;BME280;53350;52.210;5.160;2024-01-30T02:27:09;102568.50;;;9.55;82.35
66524;BME280;53350;52.210;5.160;2024-01-30T02:29:36;102571.91;;;9.54;82.23
66524;BME280;53350;52.210;5.160;2024-01-30T02:32:03;102588.84;;;9.44;82.35
66524;BME280;53350;52.210;5.160;2024-01-30T02:34:29;102580.31;;;9.47;82.63
66524;BME280;53350;52.210;5.160;2024-01-30T02:36:56;102563.09;;;9.43;82.77
66524;BME280;53350;52.210;5.160;2024-01-30T02:39:24;102559.72;;;9.45;82.89
66524;BME280;53350;52.210;5.160;2024-01-30T02:41:50;102541.84;;;9.53;82.89
66524;BME280;53350;52.210;5.160;2024-01-30T02:44:17;102533.38;;;9.58;82.64
66524;BME280;53350;52.210;5.160;2024-01-30T02:46:43;102557.44;;;9.59;82.73
66524;BME280;53350;52.210;5.160;2024-01-30T02:49:10;102555.72;;;9.60;82.61
66524;BME280;53350;52.210;5.160;2024-01-30T02:51:37;102548.84;;;9.60;82.20
66524;BME280;53350;52.210;5.160;2024-01-30T02:54:04;102553.00;;;9.52;82.80
66524;BME280;53350;52.210;5.160;2024-01-30T02:56:31;102549.50;;;9.50;82.92
66524;BME280;53350;52.210;5.160;2024-01-30T02:58:58;102539.25;;;9.51;82.55
66524;BME280;53350;52.210;5.160;2024-01-30T03:01:24;102546.94;;;9.50;82.90
66524;BME280;53350;52.210;5.160;2024-01-30T03:03:51;102545.25;;;9.50;82.56
66524;BME280;53350;52.210;5.160;2024-01-30T03:06:17;102543.50;;;9.49;82.62
66524;BME280;53350;52.210;5.160;2024-01-30T03:08:45;102539.19;;;9.48;82.29
66524;BME280;53350;52.210;5.160;2024-01-30T03:11:11;102540.81;;;9.42;82.77
66524;BME280;53350;52.210;5.160;2024-01-30T03:13:39;102539.06;;;9.40;82.92
66524;BME280;53350;52.210;5.160;2024-01-30T03:16:06;102541.50;;;9.34;82.88
66524;BME280;53350;52.210;5.160;2024-01-30T03:18:32;102540.66;;;9.35;82.85
66524;BME280;53350;52.210;5.160;2024-01-30T03:20:59;102533.81;;;9.36;82.59
66524;BME280;53350;52.210;5.160;2024-01-30T03:23:26;102525.16;;;9.32;82.76
66524;BME280;53350;52.210;5.160;2024-01-30T03:25:52;102526.78;;;9.27;83.08
66524;BME280;53350;52.210;5.160;2024-01-30T03:28:19;102524.28;;;9.30;83.01
66524;BME280;53350;52.210;5.160;2024-01-30T03:30:46;102515.78;;;9.34;82.89
66524;BME280;53350;52.210;5.160;2024-01-30T03:33:13;102516.72;;;9.39;82.77
66524;BME280;53350;52.210;5.160;2024-01-30T03:35:39;102508.31;;;9.47;82.95
66524;BME280;53350;52.210;5.160;2024-01-30T03:38:06;102500.59;;;9.48;82.63
66524;BME280;53350;52.210;5.160;2024-01-30T03:40:32;102504.94;;;9.49;82.69
66524;BME280;53350;52.210;5.160;2024-01-30T03:42:58;102500.66;;;9.51;82.52
66524;BME280;53350;52.210;5.160;2024-01-30T03:45:25;102491.22;;;9.49;83.01
66524;BME280;53350;52.210;5.160;2024-01-30T03:47:53;102502.31;;;9.46;83.14
66524;BME280;53350;52.210;5.160;2024-01-30T03:50:19;102502.28;;;9.45;83.34
66524;BME280;53350;52.210;5.160;2024-01-30T03:52:45;102506.50;;;9.43;83.13
66524;BME280;53350;52.210;5.160;2024-01-30T03:55:12;102510.78;;;9.42;83.14
66524;BME280;53350;52.210;5.160;2024-01-30T03:57:38;102512.50;;;9.42;83.16
66524;BME280;53350;52.210;5.160;2024-01-30T04:00:06;102513.31;;;9.39;83.50
66524;BME280;53350;52.210;5.160;2024-01-30T04:02:33;102514.19;;;9.41;83.51
66524;BME280;53350;52.210;5.160;2024-01-30T04:05:01;102514.25;;;9.44;83.27
66524;BME280;53350;52.210;5.160;2024-01-30T04:07:27;102516.75;;;9.41;83.34
66524;BME280;53350;52.210;5.160;2024-01-30T04:09:54;102521.78;;;9.35;83.95
66524;BME280;53350;52.210;5.160;2024-01-30T04:12:20;102519.22;;;9.35;83.85
66524;BME280;53350;52.210;5.160;2024-01-30T04:14:47;102512.34;;;9.34;83.69
66524;BME280;53350;52.210;5.160;2024-01-30T04:17:13;102505.13;;;9.16;84.39
66524;BME280;53350;52.210;5.160;2024-01-30T04:19:41;102508.72;;;9.22;84.40
66524;BME280;53350;52.210;5.160;2024-01-30T04:22:08;102503.66;;;9.27;84.17
66524;BME280;53350;52.210;5.160;2024-01-30T04:24:35;102501.91;;;9.26;84.52
66524;BME280;53350;52.210;5.160;2024-01-30T04:27:01;102501.09;;;9.29;84.13
66524;BME280;53350;52.210;5.160;2024-01-30T04:29:28;102496.06;;;9.35;83.86
66524;BME280;53350;52.210;5.160;2024-01-30T04:31:54;102495.28;;;9.37;83.93
66524;BME280;53350;52.210;5.160;2024-01-30T04:34:21;102505.50;;;9.34;84.33
66524;BME280;53350;52.210;5.160;2024-01-30T04:36:47;102490.09;;;9.36;83.86
66524;BME280;53350;52.210;5.160;2024-01-30T04:39:15;102489.34;;;9.40;84.17
66524;BME280;53350;52.210;5.160;2024-01-30T04:41:41;102477.31;;;9.40;83.95
66524;BME280;53350;52.210;5.160;2024-01-30T04:44:08;102478.94;;;9.35;84.27
66524;BME280;53350;52.210;5.160;2024-01-30T04:46:34;102477.16;;;9.31;84.68
66524;BME280;53350;52.210;5.160;2024-01-30T04:49:01;102478.16;;;9.39;84.03
66524;BME280;53350;52.210;5.160;2024-01-30T04:51:28;102484.16;;;9.38;84.38
66524;BME280;53350;52.210;5.160;2024-01-30T04:53:55;102491.03;;;9.41;83.80
66524;BME280;53350;52.210;5.160;2024-01-30T04:56:23;102486.88;;;9.46;83.64
66524;BME280;53350;52.210;5.160;2024-01-30T04:58:49;102480.03;;;9.48;83.74
66524;BME280;53350;52.210;5.160;2024-01-30T05:01:16;102483.47;;;9.47;83.59
66524;BME280;53350;52.210;5.160;2024-01-30T05:03:43;102483.47;;;9.47;83.68
66524;BME280;53350;52.210;5.160;2024-01-30T05:06:09;102480.03;;;9.48;83.91
66524;BME280;53350;52.210;5.160;2024-01-30T05:08:36;102479.22;;;9.51;83.57
66524;BME280;53350;52.210;5.160;2024-01-30T05:11:03;102475.75;;;9.47;84.05
66524;BME280;53350;52.210;5.160;2024-01-30T05:13:31;102474.94;;;9.51;83.68
66524;BME280;53350;52.210;5.160;2024-01-30T05:15:57;102468.13;;;9.52;83.99
66524;BME280;53350;52.210;5.160;2024-01-30T05:18:24;102472.25;;;9.44;84.51
66524;BME280;53350;52.210;5.160;2024-01-30T05:20:50;102467.19;;;9.50;84.42
66524;BME280;53350;52.210;5.160;2024-01-30T05:23:17;102471.63;;;9.57;84.00
66524;BME280;53350;52.210;5.160;2024-01-30T05:25:43;102473.41;;;9.61;83.91
66524;BME280;53350;52.210;5.160;2024-01-30T05:28:10;102487.03;;;9.55;84.08
66524;BME280;53350;52.210;5.160;2024-01-30T05:30:37;102480.09;;;9.51;84.07
66524;BME280;53350;52.210;5.160;2024-01-30T05:33:04;102481.91;;;9.57;84.12
66524;BME280;53350;52.210;5.160;2024-01-30T05:35:30;102475.06;;;9.56;83.88
66524;BME280;53350;52.210;5.160;2024-01-30T05:37:57;102483.69;;;9.60;84.07
66524;BME280;53350;52.210;5.160;2024-01-30T05:40:23;102472.59;;;9.62;83.87
66524;BME280;53350;52.210;5.160;2024-01-30T05:42:50;102471.78;;;9.65;83.93
66524;BME280;53350;52.210;5.160;2024-01-30T05:45:16;102479.47;;;9.63;83.98
66524;BME280;53350;52.210;5.160;2024-01-30T05:47:44;102476.94;;;9.65;83.79
66524;BME280;53350;52.210;5.160;2024-01-30T05:50:11;102477.75;;;9.64;83.99
66524;BME280;53350;52.210;5.160;2024-01-30T05:52:37;102480.34;;;9.65;83.94
66524;BME280;53350;52.210;5.160;2024-01-30T05:55:04;102476.09;;;9.67;83.70
66524;BME280;53350;52.210;5.160;2024-01-30T05:57:31;102483.00;;;9.70;83.74
66524;BME280;53350;52.210;5.160;2024-01-30T05:59:57;102481.34;;;9.72;83.55
66524;BME280;53350;52.210;5.160;2024-01-30T06:02:24;102478.00;;;9.78;83.53
66524;BME280;53350;52.210;5.160;2024-01-30T06:04:51;102484.84;;;9.77;83.67
66524;BME280;53350;52.210;5.160;2024-01-30T06:07:18;102483.19;;;9.79;83.36
66524;BME280;53350;52.210;5.160;2024-01-30T06:09:44;102484.91;;;9.82;83.36
66524;BME280;53350;52.210;5.160;2024-01-30T06:12:11;102470.38;;;9.84;83.23
66524;BME280;53350;52.210;5.160;2024-01-30T06:14:38;102491.88;;;9.87;83.20
66524;BME280;53350;52.210;5.160;2024-01-30T06:17:05;102468.75;;;9.90;83.02
66524;BME280;53350;52.210;5.160;2024-01-30T06:19:31;102483.38;;;9.91;83.11
66524;BME280;53350;52.210;5.160;2024-01-30T06:21:59;102476.50;;;9.92;83.07
66524;BME280;53350;52.210;5.160;2024-01-30T06:24:26;102476.47;;;9.90;83.10
66524;BME280;53350;52.210;5.160;2024-01-30T06:26:53;102479.97;;;9.92;83.26
66524;BME280;53350;52.210;5.160;2024-01-30T06:29:19;102474.00;;;9.94;83.13
66524;BME280;53350;52.210;5.160;2024-01-30T06:31:46;102478.31;;;9.98;83.09
66524;BME280;53350;52.210;5.160;2024-01-30T06:34:12;102477.50;;;10.00;83.15
66524;BME280;53350;52.210;5.160;2024-01-30T06:36:39;102480.16;;;10.05;83.16
66524;BME280;53350;52.210;5.160;2024-01-30T06:39:06;102486.16;;;10.02;83.70
66524;BME280;53350;52.210;5.160;2024-01-30T06:41:33;102486.13;;;10.01;83.53
66524;BME280;53350;52.210;5.160;2024-01-30T06:44:02;102486.97;;;10.01;83.34
66524;BME280;53350;52.210;5.160;2024-01-30T06:46:29;102489.63;;;10.06;83.38
66524;BME280;53350;52.210;5.160;2024-01-30T06:48:55;102492.25;;;10.09;83.43
66524;BME280;53350;52.210;5.160;2024-01-30T06:51:22;102498.31;;;10.13;83.19
66524;BME280;53350;52.210;5.160;2024-01-30T06:53:48;102500.00;;;10.12;83.37
66524;BME280;53350;52.210;5.160;2024-01-30T06:56:16;102494.06;;;10.15;83.81
66524;BME280;53350;52.210;5.160;2024-01-30T06:58:46;102494.00;;;10.10;83.99
66524;BME280;53350;52.210;5.160;2024-01-30T07:01:12;102492.38;;;10.17;84.10
66524;BME280;53350;52.210;5.160;2024-01-30T07:03:39;102491.66;;;10.25;83.49
66524;BME280;53350;52.210;5.160;2024-01-30T07:06:05;102501.16;;;10.30;83.49
66524;BME280;53350;52.210;5.160;2024-01-30T07:08:32;102502.09;;;10.33;83.54
66524;BME280;53350;52.210;5.160;2024-01-30T07:10:58;102501.22;;;10.33;83.84
66524;BME280;53350;52.210;5.160;2024-01-30T07:13:27;102502.16;;;10.36;83.95
66524;BME280;53350;52.210;5.160;2024-01-30T07:15:54;102493.56;;;10.34;84.07
66524;BME280;53350;52.210;5.160;2024-01-30T07:18:20;102491.91;;;10.39;84.04
66524;BME280;53350;52.210;5.160;2024-01-30T07:20:47;102497.09;;;10.44;84.00
66524;BME280;53350;52.210;5.160;2024-01-30T07:23:15;102500.69;;;10.54;83.60
66524;BME280;53350;52.210;5.160;2024-01-30T07:25:43;102505.13;;;10.63;83.22
66524;BME280;53350;52.210;5.160;2024-01-30T07:28:10;102500.94;;;10.69;83.11
66524;BME280;53350;52.210;5.160;2024-01-30T07:30:38;102503.38;;;10.61;83.36
66524;BME280;53350;52.210;5.160;2024-01-30T07:33:05;102498.34;;;10.69;83.31
66524;BME280;53350;52.210;5.160;2024-01-30T07:35:31;102507.81;;;10.70;83.42
66524;BME280;53350;52.210;5.160;2024-01-30T07:37:58;102511.34;;;10.78;83.03
66524;BME280;53350;52.210;5.160;2024-01-30T07:40:24;102514.88;;;10.84;83.13
66524;BME280;53350;52.210;5.160;2024-01-30T07:42:52;102520.91;;;10.87;83.29
66524;BME280;53350;52.210;5.160;2024-01-30T07:45:19;102524.44;;;10.92;83.18
66524;BME280;53350;52.210;5.160;2024-01-30T07:47:48;102519.22;;;10.88;83.38
66524;BME280;53350;52.210;5.160;2024-01-30T07:50:15;102529.53;;;10.86;83.57
66524;BME280;53350;52.210;5.160;2024-01-30T07:52:42;102522.66;;;10.88;83.58
66524;BME280;53350;52.210;5.160;2024-01-30T07:55:08;102515.75;;;10.86;83.63
66524;BME280;53350;52.210;5.160;2024-01-30T07:57:35;102520.19;;;10.98;83.46
66524;BME280;53350;52.210;5.160;2024-01-30T08:00:02;102525.47;;;11.05;83.19
66524;BME280;53350;52.210;5.160;2024-01-30T08:02:29;102527.16;;;11.05;83.38
66524;BME280;53350;52.210;5.160;2024-01-30T08:04:56;102535.88;;;11.13;82.98
66524;BME280;53350;52.210;5.160;2024-01-30T08:07:23;102535.06;;;11.16;83.27
66524;BME280;53350;52.210;5.160;2024-01-30T08:09:50;102530.78;;;11.18;83.44
66524;BME280;53350;52.210;5.160;2024-01-30T08:12:16;102528.22;;;11.21;83.12
66524;BME280;53350;52.210;5.160;2024-01-30T08:14:43;102525.75;;;11.28;82.96
66524;BME280;53350;52.210;5.160;2024-01-30T08:17:09;102532.72;;;11.34;82.56
66524;BME280;53350;52.210;5.160;2024-01-30T08:19:35;102527.59;;;11.37;82.46
66524;BME280;53350;52.210;5.160;2024-01-30T08:22:03;102529.34;;;11.41;82.30
66524;BME280;53350;52.210;5.160;2024-01-30T08:24:30;102534.53;;;11.44;82.18
66524;BME280;53350;52.210;5.160;2024-01-30T08:26:56;102532.00;;;11.49;82.06
66524;BME280;53350;52.210;5.160;2024-01-30T08:29:23;102539.72;;;11.47;82.69
66524;BME280;53350;52.210;5.160;2024-01-30T08:31:49;102534.63;;;11.54;82.14
66524;BME280;53350;52.210;5.160;2024-01-30T08:34:16;102534.59;;;11.51;82.56
66524;BME280;53350;52.210;5.160;2024-01-30T08:36:42;102534.63;;;11.52;82.80
66524;BME280;53350;52.210;5.160;2024-01-30T08:39:11;102533.78;;;11.55;82.51
66524;BME280;53350;52.210;5.160;2024-01-30T08:41:38;102536.38;;;11.56;82.82
66524;BME280;53350;52.210;5.160;2024-01-30T08:44:04;102539.88;;;11.61;82.75
66524;BME280;53350;52.210;5.160;2024-01-30T08:46:31;102539.81;;;11.55;83.09
66524;BME280;53350;52.210;5.160;2024-01-30T08:48:58;102539.03;;;11.64;82.97
66524;BME280;53350;52.210;5.160;2024-01-30T08:51:24;102542.56;;;11.71;82.80
66524;BME280;53350;52.210;5.160;2024-01-30T08:53:50;102539.97;;;11.68;83.22
66524;BME280;53350;52.210;5.160;2024-01-30T08:56:19;102541.78;;;11.78;82.63
66524;BME280;53350;52.210;5.160;2024-01-30T08:58:45;102545.25;;;11.83;82.16
66524;BME280;53350;52.210;5.160;2024-01-30T09:01:12;102532.44;;;11.91;81.79
66524;BME280;53350;52.210;5.160;2024-01-30T09:03:38;102534.13;;;11.87;82.25
66524;BME280;53350;52.210;5.160;2024-01-30T09:06:08;102547.06;;;11.92;82.05
66524;BME280;53350;52.210;5.160;2024-01-30T09:08:34;102553.88;;;11.80;82.40
66524;BME280;53350;52.210;5.160;2024-01-30T09:11:00;102547.00;;;11.86;82.34
66524;BME280;53350;52.210;5.160;2024-01-30T09:13:28;102547.00;;;11.84;82.13
66524;BME280;53350;52.210;5.160;2024-01-30T09:15:55;102556.53;;;11.90;82.00
66524;BME280;53350;52.210;5.160;2024-01-30T09:18:21;102546.22;;;11.93;82.07
66524;BME280;53350;52.210;5.160;2024-01-30T09:20:48;102551.38;;;11.93;81.80
66524;BME280;53350;52.210;5.160;2024-01-30T09:23:14;102555.78;;;11.98;81.61
66524;BME280;53350;52.210;5.160;2024-01-30T09:25:42;102561.75;;;11.94;82.15
66524;BME280;53350;52.210;5.160;2024-01-30T09:28:08;102560.06;;;11.95;81.88
66524;BME280;53350;52.210;5.160;2024-01-30T09:30:36;102562.66;;;11.98;81.83
66524;BME280;53350;52.210;5.160;2024-01-30T09:33:03;102565.25;;;11.99;81.72
66524;BME280;53350;52.210;5.160;2024-01-30T09:35:29;102565.31;;;12.04;81.79
66524;BME280;53350;52.210;5.160;2024-01-30T09:37:56;102559.28;;;12.04;82.02
66524;BME280;53350;52.210;5.160;2024-01-30T09:40:23;102560.13;;;12.01;82.15
66524;BME280;53350;52.210;5.160;2024-01-30T09:42:50;102554.13;;;12.04;82.29
66524;BME280;53350;52.210;5.160;2024-01-30T09:45:18;102572.22;;;12.05;81.95
66524;BME280;53350;52.210;5.160;2024-01-30T09:47:46;102561.94;;;12.11;81.75
66524;BME280;53350;52.210;5.160;2024-01-30T09:50:14;102569.69;;;12.13;81.71
66524;BME280;53350;52.210;5.160;2024-01-30T09:52:40;102577.47;;;12.17;81.80
66524;BME280;53350;52.210;5.160;2024-01-30T09:55:07;102567.16;;;12.19;81.67
66524;BME280;53350;52.210;5.160;2024-01-30T09:57:34;102569.72;;;12.17;82.04
66524;BME280;53350;52.210;5.160;2024-01-30T10:00:00;102562.91;;;12.24;81.28
66524;BME280;53350;52.210;5.160;2024-01-30T10:02:27;102582.75;;;12.30;81.56
66524;BME280;53350;52.210;5.160;2024-01-30T10:04:55;102580.22;;;12.34;81.25
66524;BME280;53350;52.210;5.160;2024-01-30T10:07:21;102577.66;;;12.41;81.11
66524;BME280;53350;52.210;5.160;2024-01-30T10:09:48;102574.25;;;12.43;81.17
66524;BME280;53350;52.210;5.160;2024-01-30T10:12:15;102582.91;;;12.48;81.07
66524;BME280;53350;52.210;5.160;2024-01-30T10:14:42;102572.59;;;12.51;80.50
66524;BME280;53350;52.210;5.160;2024-01-30T10:17:09;102585.56;;;12.56;79.97
66524;BME280;53350;52.210;5.160;2024-01-30T10:19:36;102590.75;;;12.62;79.63
66524;BME280;53350;52.210;5.160;2024-01-30T10:22:04;102595.94;;;12.65;79.56
66524;BME280;53350;52.210;5.160;2024-01-30T10:24:31;102585.63;;;12.68;79.33
66524;BME280;53350;52.210;5.160;2024-01-30T10:26:57;102567.59;;;12.73;79.33
66524;BME280;53350;52.210;5.160;2024-01-30T10:29:24;102574.44;;;12.71;79.22
66524;BME280;53350;52.210;5.160;2024-01-30T10:31:58;102592.56;;;12.74;78.86
66524;BME280;53350;52.210;5.160;2024-01-30T10:34:25;102590.88;;;12.76;78.48
66524;BME280;53350;52.210;5.160;2024-01-30T10:36:59;102590.00;;;12.77;77.78
66524;BME280;53350;52.210;5.160;2024-01-30T10:39:29;102596.84;;;12.67;78.12
66524;BME280;53350;52.210;5.160;2024-01-30T10:41:56;102605.47;;;12.68;77.21
66524;BME280;53350;52.210;5.160;2024-01-30T10:44:27;102594.19;;;12.61;77.52
66524;BME280;53350;52.210;5.160;2024-01-30T10:47:00;102609.66;;;12.52;77.69
66524;BME280;53350;52.210;5.160;2024-01-30T10:49:29;102601.88;;;12.50;77.62
66524;BME280;53350;52.210;5.160;2024-01-30T10:51:57;102614.78;;;12.47;77.54
66524;BME280;53350;52.210;5.160;2024-01-30T10:54:25;102620.78;;;12.43;77.77
66524;BME280;53350;52.210;5.160;2024-01-30T10:56:54;102622.53;;;12.46;77.92
66524;BME280;53350;52.210;5.160;2024-01-30T10:59:20;102626.00;;;12.51;77.56
66524;BME280;53350;52.210;5.160;2024-01-30T11:01:49;102631.19;;;12.52;76.36
66524;BME280;53350;52.210;5.160;2024-01-30T11:04:16;102634.53;;;12.44;76.38
66524;BME280;53350;52.210;5.160;2024-01-30T11:06:42;102627.66;;;12.41;75.83
66524;BME280;53350;52.210;5.160;2024-01-30T11:09:10;102638.81;;;12.35;75.03
66524;BME280;53350;52.210;5.160;2024-01-30T11:11:50;102630.91;;;12.22;75.79
66524;BME280;53350;52.210;5.160;2024-01-30T11:14:24;102639.47;;;12.17;75.21
66524;BME280;53350;52.210;5.160;2024-01-30T11:16:51;102625.66;;;12.11;75.60
66524;BME280;53350;52.210;5.160;2024-01-30T11:19:22;102628.19;;;12.09;75.85
66524;BME280;53350;52.210;5.160;2024-01-30T11:21:50;102635.09;;;12.10;75.37
66524;BME280;53350;52.210;5.160;2024-01-30T11:24:19;102632.50;;;12.10;75.08
66524;BME280;53350;52.210;5.160;2024-01-30T11:26:45;102635.09;;;12.09;75.00
66524;BME280;53350;52.210;5.160;2024-01-30T11:29:13;102648.81;;;12.06;74.37
66524;BME280;53350;52.210;5.160;2024-01-30T11:31:51;102632.44;;;12.03;74.09
66524;BME280;53350;52.210;5.160;2024-01-30T11:34:18;102620.34;;;12.00;73.87
66524;BME280;53350;52.210;5.160;2024-01-30T11:36:48;102642.72;;;11.98;73.64
66524;BME280;53350;52.210;5.160;2024-01-30T11:39:20;102649.50;;;11.93;73.40
66524;BME280;53350;52.210;5.160;2024-01-30T11:41:46;102646.03;;;11.89;73.02
66524;BME280;53350;52.210;5.160;2024-01-30T11:44:15;102639.06;;;11.82;73.42
66524;BME280;53350;52.210;5.160;2024-01-30T11:46:42;102639.91;;;11.79;73.05
66524;BME280;53350;52.210;5.160;2024-01-30T11:49:09;102652.03;;;11.85;73.16
66524;BME280;53350;52.210;5.160;2024-01-30T11:51:36;102642.50;;;11.82;73.51
66524;BME280;53350;52.210;5.160;2024-01-30T11:54:02;102654.59;;;11.85;73.58
66524;BME280;53350;52.210;5.160;2024-01-30T11:56:29;102663.94;;;11.74;74.06
66524;BME280;53350;52.210;5.160;2024-01-30T11:58:55;102652.75;;;11.73;74.18
66524;BME280;53350;52.210;5.160;2024-01-30T12:01:22;102661.28;;;11.69;74.67
66524;BME280;53350;52.210;5.160;2024-01-30T12:03:51;102669.88;;;11.68;74.65
66524;BME280;53350;52.210;5.160;2024-01-30T12:06:17;102671.63;;;11.71;74.61
66524;BME280;53350;52.210;5.160;2024-01-30T12:08:56;102670.72;;;11.69;74.67
66524;BME280;53350;52.210;5.160;2024-01-30T12:11:22;102670.72;;;11.69;73.95
66524;BME280;53350;52.210;5.160;2024-01-30T12:13:49;102674.13;;;11.63;73.65
66524;BME280;53350;52.210;5.160;2024-01-30T12:16:17;102671.47;;;11.60;73.34
66524;BME280;53350;52.210;5.160;2024-01-30T12:18:43;102676.63;;;11.57;73.21
66524;BME280;53350;52.210;5.160;2024-01-30T12:21:11;102666.22;;;11.52;73.44
66524;BME280;53350;52.210;5.160;2024-01-30T12:23:37;102667.09;;;11.53;73.75
66524;BME280;53350;52.210;5.160;2024-01-30T12:26:04;102672.16;;;11.45;73.88
66524;BME280;53350;52.210;5.160;2024-01-30T12:28:32;102683.28;;;11.41;74.44
66524;BME280;53350;52.210;5.160;2024-01-30T12:31:01;102678.03;;;11.33;74.90
66524;BME280;53350;52.210;5.160;2024-01-30T12:33:28;102686.56;;;11.29;74.61
66524;BME280;53350;52.210;5.160;2024-01-30T12:35:55;102680.59;;;11.33;74.62
66524;BME280;53350;52.210;5.160;2024-01-30T12:38:24;102666.97;;;11.42;74.41
66524;BME280;53350;52.210;5.160;2024-01-30T12:40:54;102687.59;;;11.40;74.87
66524;BME280;53350;52.210;5.160;2024-01-30T12:43:20;102679.03;;;11.44;74.54
66524;BME280;53350;52.210;5.160;2024-01-30T12:45:47;102678.25;;;11.48;74.77
66524;BME280;53350;52.210;5.160;2024-01-30T12:48:13;102687.69;;;11.49;74.66
66524;BME280;53350;52.210;5.160;2024-01-30T12:50:41;102694.56;;;11.47;74.78
66524;BME280;53350;52.210;5.160;2024-01-30T12:53:07;102704.88;;;11.46;75.15